createdAt,value
2019-01-06T00:02:03.272Z,28.87
2019-01-06T00:04:48.749Z,27.53
2019-01-06T00:07:33.023Z,27.00
2019-01-06T00:10:19.764Z,27.20
2019-01-06T00:13:07.067Z,30.87
2019-01-06T00:15:53.035Z,32.63
2019-01-06T00:18:52.331Z,29.50
2019-01-06T00:21:37.832Z,24.07
2019-01-06T00:24:27.659Z,25.87
2019-01-06T00:27:22.414Z,32.63
2019-01-06T00:30:05.998Z,32.17
2019-01-06T00:33:04.724Z,32.60
2019-01-06T00:36:03.399Z,32.70
2019-01-06T00:38:48.646Z,28.97
2019-01-06T00:41:38.530Z,37.53
2019-01-06T00:44:25.404Z,35.10
2019-01-06T00:47:24.187Z,34.37
2019-01-06T00:50:13.812Z,35.40
2019-01-06T00:53:18.617Z,30.80
2019-01-06T00:56:11.785Z,38.03
2019-01-06T00:58:57.216Z,39.73
2019-01-06T01:01:46.772Z,39.23
2019-01-06T01:04:45.328Z,44.33
2019-01-06T01:07:31.107Z,41.30
2019-01-06T01:10:32.990Z,44.10
2019-01-06T01:13:26.960Z,39.83
2019-01-06T01:16:16.545Z,39.77
2019-01-06T01:19:02.043Z,45.67
2019-01-06T01:21:47.584Z,38.13
2019-01-06T01:24:43.164Z,41.77
2019-01-06T01:27:28.048Z,38.77
2019-01-06T01:30:07.577Z,44.60
2019-01-06T01:33:00.471Z,48.27
2019-01-06T01:35:52.862Z,46.10
2019-01-06T01:38:35.071Z,42.60
2019-01-06T01:41:14.637Z,40.77
2019-01-06T01:44:00.278Z,41.70
2019-01-06T01:46:39.877Z,43.80
2019-01-06T01:49:28.591Z,39.40
2019-01-06T01:52:27.518Z,37.20
2019-01-06T01:55:12.723Z,45.30
2019-01-06T01:58:02.110Z,41.40
2019-01-06T02:00:46.539Z,43.87
2019-01-06T02:03:34.929Z,41.80
2019-01-06T02:06:35.368Z,41.53
2019-01-06T02:09:21.602Z,38.30
2019-01-06T02:12:11.384Z,46.60
2019-01-06T02:15:00.900Z,41.63
2019-01-06T02:17:46.095Z,48.07
2019-01-06T02:20:32.882Z,44.27
2019-01-06T02:23:19.938Z,44.53
2019-01-06T02:26:04.975Z,44.57
2019-01-06T02:28:57.409Z,37.20
2019-01-06T02:31:53.075Z,39.13
2019-01-06T02:34:51.337Z,38.07
2019-01-06T02:37:28.086Z,48.23
2019-01-06T02:40:20.486Z,45.70
2019-01-06T02:43:07.239Z,41.80
2019-01-06T02:45:52.676Z,39.23
2019-01-06T02:48:35.002Z,42.90
2019-01-06T02:51:20.716Z,40.77
2019-01-06T02:54:21.542Z,40.60
2019-01-06T02:57:23.554Z,45.53
2019-01-06T03:00:19.333Z,44.07
2019-01-06T03:03:14.075Z,38.40
2019-01-06T03:05:59.575Z,39.47
2019-01-06T03:08:45.122Z,41.83
2019-01-06T03:11:30.025Z,43.77
2019-01-06T03:14:28.895Z,34.13
2019-01-06T03:17:14.232Z,42.13
2019-01-06T03:19:59.742Z,37.20
2019-01-06T03:22:51.703Z,37.97
2019-01-06T03:25:41.584Z,40.53
2019-01-06T03:28:27.118Z,37.20
2019-01-06T03:31:16.890Z,40.90
2019-01-06T03:34:05.121Z,30.83
2019-01-06T03:36:54.538Z,35.53
2019-01-06T03:39:50.227Z,33.53
2019-01-06T03:42:39.795Z,30.43
2019-01-06T03:45:24.831Z,30.93
2019-01-06T03:48:23.882Z,30.67
2019-01-06T03:51:16.765Z,31.40
2019-01-06T03:53:58.571Z,30.13
2019-01-06T03:56:44.020Z,30.77
2019-01-06T03:59:42.608Z,36.13
2019-01-06T04:02:39.024Z,37.80
2019-01-06T04:05:24.509Z,41.77
2019-01-06T04:08:13.719Z,36.40
2019-01-06T04:10:56.967Z,35.00
2019-01-06T04:13:43.997Z,39.20
2019-01-06T04:16:33.641Z,39.27
2019-01-06T04:19:27.337Z,34.53
2019-01-06T04:22:14.104Z,33.50
2019-01-06T04:25:01.611Z,33.67
2019-01-06T04:27:55.900Z,40.07
2019-01-06T04:30:39.687Z,35.93
2019-01-06T04:33:29.219Z,38.10
2019-01-06T04:36:24.792Z,35.97
2019-01-06T04:39:10.241Z,36.13
2019-01-06T04:41:55.510Z,39.83
2019-01-06T04:44:39.143Z,39.97
2019-01-06T04:47:28.727Z,32.73
2019-01-06T04:50:14.037Z,34.23
2019-01-06T04:53:16.047Z,36.13
2019-01-06T04:56:01.220Z,35.13
2019-01-06T04:58:50.507Z,37.97
2019-01-06T05:01:45.928Z,39.40
2019-01-06T05:04:44.729Z,32.83
2019-01-06T05:07:31.609Z,30.47
2019-01-06T05:10:33.306Z,37.13
2019-01-06T05:13:18.458Z,33.70
2019-01-06T05:16:23.427Z,32.90
2019-01-06T05:19:13.574Z,35.60
2019-01-06T05:22:06.508Z,36.53
2019-01-06T05:24:51.914Z,35.63
2019-01-06T05:27:37.570Z,32.73
2019-01-06T05:30:27.411Z,30.47
2019-01-06T05:33:19.647Z,35.43
2019-01-06T05:36:11.882Z,33.83
2019-01-06T05:38:57.357Z,36.70
2019-01-06T05:41:42.829Z,39.17
2019-01-06T05:44:28.512Z,37.17
2019-01-06T05:47:24.238Z,31.07
2019-01-06T05:50:11.034Z,36.67
2019-01-06T05:53:15.960Z,26.70
2019-01-06T05:56:05.631Z,32.40
2019-01-06T05:58:51.219Z,35.07
2019-01-06T06:01:38.012Z,35.90
2019-01-06T06:04:23.669Z,25.93
2019-01-06T06:07:29.930Z,27.47
2019-01-06T06:10:15.180Z,31.27
2019-01-06T06:13:04.739Z,41.37
2019-01-06T06:15:49.950Z,29.90
2019-01-06T06:18:35.032Z,28.73
2019-01-06T06:21:16.770Z,29.60
2019-01-06T06:24:06.338Z,30.47
2019-01-06T06:26:56.275Z,25.17
2019-01-06T06:29:41.538Z,29.30
2019-01-06T06:32:40.465Z,24.30
2019-01-06T06:35:30.203Z,27.60
2019-01-06T06:38:15.376Z,24.97
2019-01-06T06:40:57.573Z,26.77
2019-01-06T06:43:44.387Z,29.10
2019-01-06T06:46:29.824Z,27.00
2019-01-06T06:49:09.566Z,25.87
2019-01-06T06:52:05.117Z,25.63
2019-01-06T06:54:50.621Z,30.73
2019-01-06T06:57:53.130Z,30.43
2019-01-06T07:00:59.628Z,26.50
2019-01-06T07:03:46.949Z,33.17
2019-01-06T07:06:33.810Z,28.10
2019-01-06T07:09:20.869Z,33.00
2019-01-06T07:12:05.818Z,29.83
2019-01-06T07:14:44.996Z,29.43
2019-01-06T07:17:49.882Z,26.90
2019-01-06T07:20:29.198Z,27.67
2019-01-06T07:23:16.247Z,24.83
2019-01-06T07:26:08.815Z,24.23
2019-01-06T07:29:25.025Z,27.47
2019-01-06T07:32:10.329Z,21.63
2019-01-06T07:34:57.363Z,26.17
2019-01-06T07:37:59.080Z,26.37
2019-01-06T07:40:49.037Z,22.70
2019-01-06T07:43:25.494Z,25.17
2019-01-06T07:46:03.944Z,20.00
2019-01-06T07:48:59.395Z,20.80
2019-01-06T07:51:49.312Z,19.50
2019-01-06T07:54:42.840Z,17.50
2019-01-06T07:57:44.552Z,30.83
2019-01-06T08:00:31.087Z,19.07
2019-01-06T08:03:27.920Z,21.10
2019-01-06T08:06:23.719Z,15.90
2019-01-06T08:09:22.731Z,19.83
2019-01-06T08:12:03.095Z,21.63
2019-01-06T08:14:53.608Z,20.37
2019-01-06T08:17:38.759Z,18.50
2019-01-06T08:20:25.934Z,25.63
2019-01-06T08:23:21.987Z,17.63
2019-01-06T08:26:07.382Z,19.07
2019-01-06T08:28:52.805Z,21.90
2019-01-06T08:31:28.846Z,18.17
2019-01-06T08:34:16.228Z,19.40
2019-01-06T08:37:01.904Z,19.50
2019-01-06T08:39:47.344Z,21.40
2019-01-06T08:42:46.327Z,20.23
2019-01-06T08:45:51.352Z,19.33
2019-01-06T08:48:37.113Z,19.87
2019-01-06T08:51:21.753Z,19.60
2019-01-06T08:54:06.987Z,15.37
2019-01-06T08:56:59.296Z,19.83
2019-01-06T08:59:46.126Z,24.67
2019-01-06T09:02:50.816Z,18.90
2019-01-06T09:05:35.874Z,19.73
2019-01-06T09:08:25.501Z,18.63
2019-01-06T09:11:10.745Z,21.27
2019-01-06T09:13:53.712Z,22.77
2019-01-06T09:16:38.750Z,25.17
2019-01-06T09:19:37.709Z,22.10
2019-01-06T09:22:42.254Z,18.93
2019-01-06T09:25:27.831Z,19.00
2019-01-06T09:28:13.316Z,17.87
2019-01-06T09:30:58.105Z,17.93
2019-01-06T09:33:42.067Z,17.13
2019-01-06T09:36:27.661Z,18.03
2019-01-06T09:39:14.686Z,15.30
2019-01-06T09:41:48.474Z,17.10
2019-01-06T09:44:34.021Z,15.40
2019-01-06T09:47:23.702Z,14.00
2019-01-06T09:50:22.208Z,16.77
2019-01-06T09:53:08.986Z,14.77
2019-01-06T09:56:03.496Z,17.43
2019-01-06T09:58:56.421Z,16.77
2019-01-06T10:01:52.909Z,18.20
2019-01-06T10:04:38.173Z,17.20
2019-01-06T10:07:26.431Z,21.10
2019-01-06T10:10:12.138Z,17.33
2019-01-06T10:13:01.711Z,17.90
2019-01-06T10:15:48.596Z,19.37
2019-01-06T10:18:38.203Z,15.83
2019-01-06T10:21:40.063Z,18.87
2019-01-06T10:24:29.623Z,17.50
2019-01-06T10:27:31.277Z,13.73
2019-01-06T10:30:10.790Z,20.67
2019-01-06T10:32:46.005Z,18.33
2019-01-06T10:35:47.462Z,21.80
2019-01-06T10:38:40.017Z,25.03
2019-01-06T10:41:22.736Z,23.23
2019-01-06T10:44:21.736Z,18.40
2019-01-06T10:47:08.790Z,21.70
2019-01-06T10:50:13.318Z,24.53
2019-01-06T10:52:58.566Z,22.20
2019-01-06T10:55:43.078Z,21.67
2019-01-06T10:58:28.339Z,22.73
2019-01-06T11:01:13.347Z,18.90
2019-01-06T11:04:03.218Z,23.67
2019-01-06T11:06:58.223Z,23.03
2019-01-06T11:09:43.462Z,27.60
2019-01-06T11:12:16.540Z,21.37
2019-01-06T11:14:55.506Z,21.90
2019-01-06T11:17:41.092Z,22.47
2019-01-06T11:20:36.985Z,23.33
2019-01-06T11:23:22.275Z,27.63
2019-01-06T11:26:17.578Z,31.50
2019-01-06T11:29:02.800Z,27.93
2019-01-06T11:32:01.676Z,25.27
2019-01-06T11:34:46.961Z,28.13
2019-01-06T11:37:31.964Z,27.60
2019-01-06T11:40:18.821Z,31.23
2019-01-06T11:43:20.290Z,28.53
2019-01-06T11:46:05.797Z,31.63
2019-01-06T11:48:55.292Z,33.13
2019-01-06T11:51:42.096Z,33.00
2019-01-06T11:54:27.134Z,26.70
2019-01-06T11:57:17.013Z,29.57
2019-01-06T12:00:06.658Z,28.73
2019-01-06T12:02:52.166Z,33.27
2019-01-06T12:05:38.057Z,31.57
2019-01-06T12:08:23.341Z,27.80
2019-01-06T12:11:08.921Z,36.30
2019-01-06T12:14:14.528Z,29.83
2019-01-06T12:16:58.364Z,29.83
2019-01-06T12:19:49.129Z,31.00
2019-01-06T12:23:03.817Z,34.73
2019-01-06T12:25:49.253Z,29.87
2019-01-06T12:28:41.804Z,39.80
2019-01-06T12:31:30.079Z,35.33
2019-01-06T12:34:25.491Z,29.90
2019-01-06T12:37:15.561Z,35.63
2019-01-06T12:39:59.789Z,29.17
2019-01-06T12:42:45.338Z,33.53
2019-01-06T12:45:25.440Z,41.97
2019-01-06T12:48:13.132Z,36.33
2019-01-06T12:51:09.845Z,36.23
2019-01-06T12:53:55.678Z,36.67
2019-01-06T12:56:57.650Z,27.33
2019-01-06T12:59:44.432Z,30.37
2019-01-06T13:02:34.237Z,32.23
2019-01-06T13:05:25.485Z,35.03
2019-01-06T13:08:02.876Z,32.33
2019-01-06T13:10:48.453Z,32.73
2019-01-06T13:13:37.025Z,36.63
2019-01-06T13:16:42.063Z,30.13
2019-01-06T13:19:34.663Z,27.43
2019-01-06T13:22:20.049Z,28.50
2019-01-06T13:25:06.856Z,37.77
2019-01-06T13:27:59.758Z,35.10
2019-01-06T13:31:05.964Z,33.33
2019-01-06T13:33:51.251Z,30.40
2019-01-06T13:36:38.129Z,34.43
2019-01-06T13:39:43.201Z,31.40
2019-01-06T13:42:28.400Z,32.87
2019-01-06T13:45:25.431Z,35.10
2019-01-06T13:48:12.326Z,33.87
2019-01-06T13:50:57.849Z,39.43
2019-01-06T13:53:43.344Z,35.90
2019-01-06T13:56:33.262Z,34.80
2019-01-06T13:59:18.848Z,38.47
2019-01-06T14:02:17.666Z,39.47
2019-01-06T14:05:13.468Z,39.63
2019-01-06T14:08:00.333Z,36.83
2019-01-06T14:10:52.995Z,40.27
2019-01-06T14:13:40.057Z,43.47
2019-01-06T14:16:25.686Z,38.27
2019-01-06T14:19:11.218Z,41.67
2019-01-06T14:22:03.621Z,38.60
2019-01-06T14:24:45.420Z,39.97
2019-01-06T14:27:34.998Z,44.13
2019-01-06T14:30:26.012Z,40.77
2019-01-06T14:33:27.834Z,41.73
2019-01-06T14:36:13.642Z,42.33
2019-01-06T14:38:58.823Z,37.90
2019-01-06T14:41:44.254Z,44.73
2019-01-06T14:44:29.620Z,34.83
2019-01-06T14:47:21.942Z,47.70
2019-01-06T14:50:13.820Z,39.07
2019-01-06T14:53:03.653Z,39.70
2019-01-06T14:55:56.736Z,45.53
2019-01-06T14:58:32.174Z,45.60
2019-01-06T15:01:27.962Z,42.13
2019-01-06T15:04:32.788Z,39.13
2019-01-06T15:07:33.313Z,41.53
2019-01-06T15:10:25.988Z,40.53
2019-01-06T15:13:30.845Z,43.67
2019-01-06T15:16:16.043Z,43.33
2019-01-06T15:19:14.598Z,40.77
2019-01-06T15:22:04.148Z,41.97
2019-01-06T15:24:59.914Z,46.47
2019-01-06T15:27:45.748Z,39.10
2019-01-06T15:30:31.261Z,40.87
2019-01-06T15:33:16.186Z,43.47
2019-01-06T15:36:08.641Z,49.93
2019-01-06T15:38:46.314Z,43.47
2019-01-06T15:41:38.971Z,47.93
2019-01-06T15:44:24.571Z,40.07
2019-01-06T15:47:26.634Z,46.70
2019-01-06T15:50:07.086Z,44.60
2019-01-06T15:52:52.567Z,41.00
2019-01-06T15:55:42.242Z,49.10
2019-01-06T15:58:34.983Z,45.63
2019-01-06T16:01:22.110Z,42.17
2019-01-06T16:04:20.813Z,41.90
2019-01-06T16:06:58.776Z,42.60
2019-01-06T16:09:39.279Z,47.23
2019-01-06T16:12:14.863Z,46.40
2019-01-06T16:15:04.494Z,45.80
2019-01-06T16:18:09.224Z,43.60
2019-01-06T16:20:54.196Z,43.97
2019-01-06T16:23:39.701Z,47.40
2019-01-06T16:26:22.103Z,49.10
2019-01-06T16:29:23.647Z,60.83
2019-01-06T16:32:22.373Z,44.27
2019-01-06T16:35:27.220Z,43.93
2019-01-06T16:38:16.908Z,45.73
2019-01-06T16:40:57.103Z,46.57
2019-01-06T16:43:44.719Z,51.50
2019-01-06T16:46:49.569Z,46.87
2019-01-06T16:49:34.553Z,46.17
2019-01-06T16:52:20.109Z,48.03
2019-01-06T16:55:05.545Z,45.97
2019-01-06T16:57:49.641Z,48.77
2019-01-06T17:00:48.743Z,44.90
2019-01-06T17:03:29.281Z,51.47
2019-01-06T17:06:27.609Z,55.33
2019-01-06T17:09:16.984Z,44.27
2019-01-06T17:12:02.233Z,53.33
2019-01-06T17:14:47.704Z,52.07
2019-01-06T17:17:40.260Z,54.10
2019-01-06T17:20:32.923Z,53.33
2019-01-06T17:23:22.560Z,54.17
2019-01-06T17:26:10.374Z,47.03
2019-01-06T17:28:55.938Z,46.50
2019-01-06T17:31:45.935Z,52.60
2019-01-06T17:34:35.512Z,48.27
2019-01-06T17:37:28.160Z,46.10
2019-01-06T17:40:10.702Z,52.17
2019-01-06T17:42:59.143Z,71.50
2019-01-06T17:45:58.172Z,49.23
2019-01-06T17:48:41.674Z,52.07
2019-01-06T17:51:38.568Z,49.13
2019-01-06T17:54:37.936Z,55.40
2019-01-06T17:57:23.499Z,49.47
2019-01-06T18:00:21.961Z,53.47
2019-01-06T18:03:13.859Z,52.37
2019-01-06T18:05:55.284Z,49.13
2019-01-06T18:08:39.946Z,50.83
2019-01-06T18:11:24.963Z,51.43
2019-01-06T18:13:57.872Z,55.70
2019-01-06T18:16:52.597Z,62.37
2019-01-06T18:19:38.036Z,55.20
2019-01-06T18:22:27.109Z,56.83
2019-01-06T18:25:32.212Z,54.10
2019-01-06T18:28:18.300Z,52.77
2019-01-06T18:31:08.209Z,53.40
2019-01-06T18:33:53.459Z,56.00
2019-01-06T18:36:44.104Z,54.03
2019-01-06T18:39:45.746Z,51.77
2019-01-06T18:42:47.479Z,56.50
2019-01-06T18:45:49.208Z,49.63
2019-01-06T18:48:42.023Z,55.37
2019-01-06T18:51:27.545Z,59.20
2019-01-06T18:54:25.588Z,53.53
2019-01-06T18:57:12.450Z,49.90
2019-01-06T18:59:55.598Z,49.80
2019-01-06T19:02:48.449Z,57.40
2019-01-06T19:05:33.953Z,54.43
2019-01-06T19:08:39.215Z,56.97
2019-01-06T19:11:26.996Z,59.37
2019-01-06T19:14:16.955Z,58.67
2019-01-06T19:17:02.543Z,65.23
2019-01-06T19:19:48.199Z,57.23
2019-01-06T19:22:53.254Z,57.80
2019-01-06T19:25:38.706Z,56.77
2019-01-06T19:28:24.045Z,59.03
2019-01-06T19:31:16.740Z,59.90
2019-01-06T19:34:06.351Z,55.53
2019-01-06T19:37:05.294Z,56.40
2019-01-06T19:39:50.650Z,53.27
2019-01-06T19:42:32.576Z,56.07
2019-01-06T19:45:19.462Z,53.70
2019-01-06T19:47:59.861Z,60.33
2019-01-06T19:51:01.568Z,53.30
2019-01-06T19:53:51.379Z,59.80
2019-01-06T19:56:53.294Z,61.63
2019-01-06T19:59:40.104Z,56.87
2019-01-06T20:02:23.644Z,64.37
2019-01-06T20:05:18.653Z,57.10
2019-01-06T20:08:15.086Z,62.67
2019-01-06T20:11:19.872Z,54.73
2019-01-06T20:14:24.569Z,58.60
2019-01-06T20:17:11.722Z,57.20
2019-01-06T20:19:57.183Z,67.77
2019-01-06T20:22:48.765Z,63.30
2019-01-06T20:25:39.615Z,57.40
2019-01-06T20:28:35.456Z,56.97
2019-01-06T20:31:28.180Z,62.53
2019-01-06T20:34:17.886Z,58.30
2019-01-06T20:37:04.674Z,54.17
2019-01-06T20:39:51.515Z,66.27
2019-01-06T20:42:36.671Z,62.17
2019-01-06T20:45:38.568Z,59.83
2019-01-06T20:48:37.174Z,55.43
2019-01-06T20:51:29.811Z,58.40
2019-01-06T20:54:19.362Z,59.43
2019-01-06T20:57:04.766Z,63.30
2019-01-06T20:59:54.076Z,67.47
2019-01-06T21:02:40.967Z,60.37
2019-01-06T21:05:30.627Z,65.83
2019-01-06T21:08:20.148Z,64.93
2019-01-06T21:11:01.159Z,70.37
2019-01-06T21:13:48.088Z,57.77
2019-01-06T21:16:30.113Z,63.90
2019-01-06T21:19:20.081Z,68.57
2019-01-06T21:22:07.012Z,65.90
2019-01-06T21:25:02.557Z,68.57
2019-01-06T21:28:05.992Z,64.13
2019-01-06T21:30:51.196Z,69.80
2019-01-06T21:33:45.723Z,68.27
2019-01-06T21:36:32.523Z,65.30
2019-01-06T21:39:25.719Z,64.60
2019-01-06T21:42:13.156Z,62.10
2019-01-06T21:45:09.132Z,64.47
2019-01-06T21:47:54.420Z,64.40
2019-01-06T21:50:35.903Z,61.37
2019-01-06T21:53:20.860Z,71.23
2019-01-06T21:56:06.376Z,67.87
2019-01-06T21:58:56.298Z,63.47
2019-01-06T22:01:40.651Z,58.50
2019-01-06T22:04:27.524Z,67.43
2019-01-06T22:07:17.195Z,62.67
2019-01-06T22:10:11.772Z,61.20
2019-01-06T22:12:56.114Z,70.77
2019-01-06T22:15:36.736Z,65.67
2019-01-06T22:18:23.590Z,64.80
2019-01-06T22:21:17.020Z,70.20
2019-01-06T22:24:03.938Z,71.77
2019-01-06T22:26:38.905Z,74.10
2019-01-06T22:29:24.140Z,81.40
2019-01-06T22:32:09.657Z,73.10
2019-01-06T22:34:55.084Z,86.63
2019-01-06T22:37:48.114Z,81.97
2019-01-06T22:40:43.875Z,80.67
2019-01-06T22:43:29.412Z,76.80
2019-01-06T22:46:21.842Z,73.47
2019-01-06T22:49:07.808Z,74.23
2019-01-06T22:52:06.653Z,65.00
2019-01-06T22:55:08.433Z,69.40
2019-01-06T22:57:53.765Z,74.17
2019-01-06T23:00:42.261Z,68.47
2019-01-06T23:03:27.893Z,77.07
2019-01-06T23:06:18.069Z,74.23
2019-01-06T23:09:04.863Z,76.03
2019-01-06T23:11:45.879Z,76.13
2019-01-06T23:14:31.108Z,74.53
2019-01-06T23:17:17.884Z,70.40
2019-01-06T23:20:24.111Z,72.33
2019-01-06T23:23:12.498Z,71.53
2019-01-06T23:26:05.031Z,78.20
2019-01-06T23:28:54.671Z,67.93
2019-01-06T23:31:32.674Z,71.37
2019-01-06T23:34:17.238Z,71.77
2019-01-06T23:37:09.982Z,75.03
2019-01-06T23:40:05.414Z,86.53
2019-01-06T23:42:53.544Z,66.83
2019-01-06T23:45:58.035Z,61.67
2019-01-06T23:48:59.751Z,62.67
2019-01-06T23:51:58.840Z,61.57
2019-01-06T23:54:45.892Z,74.90
2019-01-06T23:57:23.221Z,62.47
